Time;durP1;ratioP1;P1;durP2;ratioP2;P2;SDS_P1;SDS_P2;PMS_P1;PMS_P2;Temp;Humidity;BMP_temperature;BMP_pressure;BME280_temperature;BME280_humidity;BME280_pressure;Samples;Min_cycle;Max_cycle;Signal;HPM_P1;HPM_P2
2022/08/21 00:02:18;;;;;;;6.03;5.43;;;25.00;55.00;25.80;100917.00;;;;5006529;28;20246;-39
2022/08/21 00:04:43;;;;;;;5.40;4.90;;;25.00;55.10;25.80;100908.00;;;;5006322;28;20186;-40
2022/08/21 00:07:09;;;;;;;5.68;5.07;;;25.00;55.00;25.80;100906.00;;;;5006314;28;20171;-39
2022/08/21 00:09:35;;;;;;;6.72;5.32;;;25.00;55.10;25.80;100912.00;;;;5007012;28;20633;-39
2022/08/21 00:12:01;;;;;;;5.50;5.00;;;24.90;55.00;25.80;100898.00;;;;5007152;28;20159;-40
2022/08/21 00:14:27;;;;;;;6.15;5.55;;;24.90;54.90;25.70;100901.00;;;;5021707;28;20178;-40
2022/08/21 00:16:53;;;;;;;6.30;5.70;;;24.90;54.90;25.70;100895.00;;;;5005884;28;20179;-40
2022/08/21 00:19:18;;;;;;;5.43;4.93;;;24.90;55.00;25.50;100896.00;;;;5005981;28;20693;-40
2022/08/21 00:21:44;;;;;;;7.18;5.53;;;24.90;55.00;25.70;100902.00;;;;5006086;28;20190;-39
2022/08/21 00:24:11;;;;;;;5.68;5.18;;;24.80;55.10;25.70;100893.00;;;;5005939;28;20329;-40
2022/08/21 00:26:36;;;;;;;5.57;4.90;;;24.80;55.10;25.60;100888.00;;;;5005929;28;20226;-40
2022/08/21 00:29:03;;;;;;;6.13;5.53;;;24.80;54.90;25.60;100895.00;;;;5006261;28;20196;-40
2022/08/21 00:31:29;;;;;;;5.65;5.13;;;24.70;54.80;25.60;100892.00;;;;5006481;28;20159;-40
2022/08/21 00:33:54;;;;;;;6.00;5.40;;;24.70;55.00;25.60;100891.00;;;;5005846;28;20573;-40
2022/08/21 00:36:20;;;;;;;6.88;5.65;;;24.70;55.00;25.60;100886.00;;;;5005769;28;20186;-40
2022/08/21 00:38:46;;;;;;;5.85;5.30;;;24.70;55.00;25.50;100879.00;;;;5005563;28;20195;-40
2022/08/21 00:41:12;;;;;;;6.10;5.00;;;24.70;55.00;25.50;100885.00;;;;5005932;28;20222;-40
2022/08/21 00:43:38;;;;;;;5.63;5.13;;;24.70;55.10;25.50;100873.00;;;;5005833;28;20220;-40
2022/08/21 00:46:05;;;;;;;5.80;5.30;;;24.70;55.20;25.50;100877.00;;;;5008140;28;20183;-39
2022/08/21 00:48:31;;;;;;;5.38;4.97;;;24.60;55.20;25.50;100882.00;;;;5009681;28;20403;-38
2022/08/21 00:50:58;;;;;;;5.93;5.32;;;24.60;55.20;25.50;100883.00;;;;5009887;28;20341;-40
2022/08/21 00:53:24;;;;;;;6.03;5.43;;;24.70;55.30;25.20;100886.00;;;;5010082;28;20670;-40
2022/08/21 00:55:50;;;;;;;6.13;5.10;;;24.60;55.30;25.40;100878.00;;;;5024952;28;20254;-39
2022/08/21 00:58:15;;;;;;;6.10;5.07;;;24.60;55.30;25.40;100885.00;;;;5024561;28;20191;-39
2022/08/21 01:00:42;;;;;;;5.75;5.25;;;24.60;55.40;25.40;100881.00;;;;5030335;28;20367;-39
2022/08/21 01:03:12;;;;;;;5.60;5.00;;;24.60;55.30;25.40;100882.00;;;;5010017;28;20684;-40
2022/08/21 01:05:39;;;;;;;6.07;5.50;;;24.60;55.40;25.40;100823.00;;;;5009858;28;20168;-40
2022/08/21 01:08:05;;;;;;;5.60;5.10;;;24.60;55.40;25.40;100883.00;;;;5009350;28;20188;-40
2022/08/21 01:10:30;;;;;;;6.05;5.43;;;24.50;55.40;25.30;100887.00;;;;5024523;28;20210;-40
2022/08/21 01:12:56;;;;;;;5.63;5.10;;;24.50;55.40;25.30;100884.00;;;;5009481;28;20179;-40
2022/08/21 01:15:26;;;;;;;5.40;4.90;;;24.50;55.40;25.30;100890.00;;;;5024549;28;20179;-40
2022/08/21 01:17:52;;;;;;;5.10;4.70;;;24.50;55.40;25.30;100892.00;;;;5024114;28;20411;-39
2022/08/21 01:20:18;;;;;;;5.63;4.80;;;24.50;55.40;25.30;100894.00;;;;5024624;28;20187;-39
2022/08/21 01:22:44;;;;;;;6.60;5.13;;;24.50;55.40;25.30;100906.00;;;;5009636;28;20268;-40
2022/08/21 01:25:14;;;;;;;5.63;5.07;;;24.40;55.20;25.20;100893.00;;;;5011007;28;20179;-39
2022/08/21 01:27:40;;;;;;;5.88;4.72;;;24.40;55.30;25.20;100896.00;;;;5010260;28;20203;-39
2022/08/21 01:30:14;;;;;;;7.75;5.05;;;24.40;55.50;25.20;100911.00;;;;5024151;28;20172;-39
2022/08/21 01:32:40;;;;;;;8.73;5.17;;;24.40;55.30;25.20;100900.00;;;;5024521;28;20164;-39
2022/08/21 01:35:06;;;;;;;5.85;5.20;;;24.30;55.10;25.20;100894.00;;;;5009155;28;20550;-40
2022/08/21 01:37:32;;;;;;;4.80;4.40;;;24.40;55.30;25.20;100895.00;;;;5024007;28;20202;-39
2022/08/21 01:39:58;;;;;;;5.55;4.80;;;24.40;55.50;25.10;100888.00;;;;5009240;28;20187;-37
2022/08/21 01:42:23;;;;;;;6.03;4.70;;;24.30;55.50;25.10;100885.00;;;;5008910;28;20670;-39
2022/08/21 01:44:49;;;;;;;5.45;4.95;;;24.30;55.60;25.10;100890.00;;;;5008577;28;20199;-39
2022/08/21 01:47:15;;;;;;;6.10;5.25;;;24.30;55.60;25.10;100888.00;;;;5008505;28;20167;-39
2022/08/21 01:49:41;;;;;;;5.75;5.25;;;24.20;55.60;25.10;100867.00;;;;5008725;28;20650;-39
2022/08/21 01:52:07;;;;;;;6.50;5.50;;;24.20;55.70;25.00;100888.00;;;;5009025;28;20180;-39
2022/08/21 01:54:33;;;;;;;4.85;4.45;;;24.20;55.60;25.00;100885.00;;;;5009074;28;20214;-39
2022/08/21 01:56:58;;;;;;;5.63;4.70;;;24.20;55.70;25.00;100884.00;;;;5008682;28;20190;-39
2022/08/21 01:59:24;;;;;;;5.17;4.67;;;24.20;56.30;25.00;100881.00;;;;5023664;28;20198;-39
2022/08/21 02:01:50;;;;;;;5.30;4.47;;;24.20;55.60;24.80;100877.00;;;;5008633;28;20258;-39
2022/08/21 02:04:16;;;;;;;5.67;4.27;;;24.20;55.70;25.00;100877.00;;;;5008172;28;20199;-39
2022/08/21 02:06:42;;;;;;;5.73;4.50;;;24.20;55.70;25.00;100873.00;;;;5008349;28;20168;-39
2022/08/21 02:09:09;;;;;;;5.32;4.80;;;24.10;55.50;24.90;100871.00;;;;5008397;28;20249;-38
2022/08/21 02:11:35;;;;;;;7.47;4.90;;;24.10;55.50;24.90;100875.00;;;;5008898;28;20171;-39
2022/08/21 02:14:01;;;;;;;5.43;4.70;;;24.10;55.50;24.90;100875.00;;;;5023733;28;20655;-39
2022/08/21 02:16:27;;;;;;;5.07;4.60;;;24.10;55.50;24.90;100877.00;;;;5008605;28;20225;-38
2022/08/21 02:18:53;;;;;;;5.27;4.70;;;24.10;55.50;24.90;100876.00;;;;5008492;28;20794;-39
2022/08/21 02:21:18;;;;;;;4.70;4.30;;;24.10;55.50;24.80;100878.00;;;;5008597;28;20430;-38
2022/08/21 02:23:44;;;;;;;5.07;4.57;;;24.10;55.60;24.80;100877.00;;;;5008216;28;20210;-38
2022/08/21 02:26:10;;;;;;;5.37;4.40;;;24.00;55.50;24.80;100886.00;;;;5008279;28;20195;-39
2022/08/21 02:28:36;;;;;;;5.13;4.63;;;24.00;55.50;24.80;100880.00;;;;5007581;28;20683;-39
2022/08/21 02:31:02;;;;;;;5.63;4.43;;;24.00;55.50;24.80;100874.00;;;;5008058;28;20187;-39
2022/08/21 02:33:29;;;;;;;5.47;5.00;;;24.00;55.50;24.80;100862.00;;;;5007952;28;20547;-39
2022/08/21 02:35:56;;;;;;;5.13;4.63;;;24.00;55.40;24.70;100879.00;;;;5023032;28;20696;-39
2022/08/21 02:38:24;;;;;;;6.37;4.60;;;24.00;55.40;24.70;100878.00;;;;5007608;28;20195;-39
2022/08/21 02:40:51;;;;;;;6.77;4.80;;;23.90;55.30;24.70;100874.00;;;;5007758;28;20211;-39
2022/08/21 02:43:17;;;;;;;5.10;4.60;;;23.90;55.30;24.70;100868.00;;;;5007819;28;20207;-39
2022/08/21 02:45:43;;;;;;;6.43;4.57;;;23.90;55.30;24.70;100868.00;;;;5008180;28;20187;-39
2022/08/21 02:48:12;;;;;;;6.30;5.07;;;23.90;55.40;24.60;100862.00;;;;5010481;28;20826;-39
2022/08/21 02:50:46;;;;;;;5.40;4.90;;;23.90;55.40;24.60;100871.00;;;;5011094;28;20808;-39
2022/08/21 02:53:16;;;;;;;4.97;4.57;;;23.80;55.30;24.60;100870.00;;;;5007983;28;20175;-39
2022/08/21 02:55:46;;;;;;;5.70;4.70;;;23.80;55.50;24.60;100869.00;;;;5007148;28;20230;-39
2022/08/21 02:58:12;;;;;;;6.73;4.83;;;23.80;55.30;24.60;100870.00;;;;5007587;28;20245;-39
2022/08/21 03:00:38;;;;;;;5.50;4.93;;;23.80;55.30;24.60;100863.00;;;;5007708;28;20265;-39
2022/08/21 03:03:04;;;;;;;5.30;4.80;;;23.80;55.30;24.60;100868.00;;;;5007404;28;20207;-39
2022/08/21 03:05:33;;;;;;;6.20;4.47;;;23.80;55.30;24.50;100872.00;;;;5007662;28;20167;-39
2022/08/21 03:08:00;;;;;;;5.57;4.60;;;23.80;55.30;24.50;100874.00;;;;5006157;28;20731;-39
2022/08/21 03:10:26;;;;;;;4.90;4.50;;;23.80;55.30;24.50;100866.00;;;;5007188;28;20249;-39
2022/08/21 03:12:52;;;;;;;4.93;4.40;;;23.80;55.30;24.50;100866.00;;;;5007469;28;20179;-39
2022/08/21 03:15:19;;;;;;;5.17;4.70;;;23.70;55.20;24.50;100863.00;;;;5007412;28;20696;-39
2022/08/21 03:17:46;;;;;;;5.30;4.80;;;23.80;55.30;24.50;100870.00;;;;5005706;28;20191;-40
2022/08/21 03:20:13;;;;;;;5.80;4.60;;;23.80;55.30;24.50;100871.00;;;;5007230;28;20386;-38
2022/08/21 03:22:39;;;;;;;5.10;4.60;;;23.70;55.30;24.40;100864.00;;;;5005204;28;20686;-38
2022/08/21 03:25:06;;;;;;;5.30;4.80;;;23.70;55.30;24.40;100866.00;;;;5007190;28;20172;-38
2022/08/21 03:27:33;;;;;;;5.57;4.67;;;23.60;55.30;24.40;100874.00;;;;5006708;28;20694;-39
2022/08/21 03:29:59;;;;;;;5.57;4.70;;;23.60;55.30;24.40;100867.00;;;;5007043;28;20167;-38
2022/08/21 03:32:25;;;;;;;5.83;5.00;;;23.70;55.30;24.40;100867.00;;;;5006807;28;20744;-38
2022/08/21 03:34:50;;;;;;;6.60;4.40;;;23.60;55.20;24.40;100870.00;;;;5006420;28;20700;-38
2022/08/21 03:37:17;;;;;;;4.67;4.27;;;23.60;55.30;24.40;100870.00;;;;5006190;28;20168;-38
2022/08/21 03:39:44;;;;;;;5.10;4.70;;;23.60;55.30;24.30;100867.00;;;;5006782;28;20182;-39
2022/08/21 03:42:10;;;;;;;6.53;6.00;;;23.60;55.30;24.30;100868.00;;;;5006780;28;20611;-39
2022/08/21 03:44:36;;;;;;;9.60;8.53;;;23.60;55.30;24.30;100867.00;;;;5006636;28;20271;-38
2022/08/21 03:47:02;;;;;;;7.63;7.00;;;23.60;55.30;24.30;100868.00;;;;5006574;28;20250;-38
2022/08/21 03:49:28;;;;;;;6.17;5.53;;;23.60;55.30;24.30;100868.00;;;;5005223;28;20529;-39
2022/08/21 03:51:54;;;;;;;5.63;5.13;;;23.50;55.20;24.30;100874.00;;;;5006284;28;20427;-38
2022/08/21 03:54:20;;;;;;;5.47;5.00;;;23.50;55.20;24.20;100862.00;;;;5013094;28;20193;-39
2022/08/21 03:56:45;;;;;;;5.60;5.10;;;23.50;55.30;24.20;100871.00;;;;5025528;28;20664;-38
2022/08/21 03:59:11;;;;;;;6.97;4.97;;;23.50;55.20;24.20;100872.00;;;;5025820;28;20282;-39
2022/08/21 04:01:37;;;;;;;5.53;4.93;;;23.40;55.20;24.20;100874.00;;;;5025712;28;20255;-39
2022/08/21 04:04:04;;;;;;;5.10;4.60;;;23.50;55.30;24.20;100876.00;;;;5025666;28;20567;-40
2022/08/21 04:06:29;;;;;;;5.20;4.70;;;23.40;55.10;24.10;100877.00;;;;5026200;28;20493;-38
2022/08/21 04:08:55;;;;;;;4.90;4.40;;;23.40;55.20;24.10;100877.00;;;;5025756;28;20241;-39
2022/08/21 04:11:21;;;;;;;5.37;4.87;;;23.40;55.20;24.10;100877.00;;;;5025789;28;20167;-38
2022/08/21 04:13:47;;;;;;;5.03;4.53;;;23.40;55.20;24.10;100887.00;;;;5025507;28;20171;-39
2022/08/21 04:16:13;;;;;;;5.63;4.57;;;23.40;55.20;24.10;100886.00;;;;5025799;28;20271;-38
2022/08/21 04:18:39;;;;;;;11.80;4.60;;;23.30;55.10;24.10;100891.00;;;;5025655;28;20282;-39
2022/08/21 04:21:05;;;;;;;6.73;4.63;;;23.40;55.40;24.10;100888.00;;;;5025082;28;20175;-39
2022/08/21 04:23:31;;;;;;;6.30;4.73;;;23.40;55.30;24.10;100881.00;;;;5040624;28;20205;-39
2022/08/21 04:25:57;;;;;;;6.13;4.50;;;23.30;55.10;24.00;100889.00;;;;5025584;28;20163;-39
2022/08/21 04:28:24;;;;;;;6.43;4.77;;;23.30;55.10;24.00;100884.00;;;;5025066;28;20198;-38
2022/08/21 04:30:51;;;;;;;5.07;4.67;;;23.20;55.00;24.00;100883.00;;;;5025280;28;20545;-39
2022/08/21 04:33:17;;;;;;;5.73;4.50;;;23.20;55.00;24.00;100891.00;;;;5008028;28;20181;-39
2022/08/21 04:35:43;;;;;;;5.93;4.70;;;23.20;55.00;24.00;100893.00;;;;5025344;28;20471;-38
2022/08/21 04:38:09;;;;;;;5.43;4.43;;;23.20;55.00;23.90;100886.00;;;;5029052;28;20246;-38
2022/08/21 04:40:35;;;;;;;4.77;4.37;;;23.20;55.00;23.90;100894.00;;;;5003893;28;20226;-38
2022/08/21 04:43:04;;;;;;;5.03;4.53;;;23.20;55.00;23.90;100887.00;;;;5019058;28;20222;-38
2022/08/21 04:45:38;;;;;;;5.27;4.50;;;23.10;55.00;23.90;100888.00;;;;5025788;28;20237;-38
2022/08/21 04:48:10;;;;;;;4.97;4.47;;;23.10;55.00;23.90;100888.00;;;;5024334;28;20536;-38
2022/08/21 04:50:59;;;;;;;4.87;4.43;;;23.10;55.00;23.90;100895.00;;;;5025556;28;20163;-41
2022/08/21 04:53:44;;;;;;;5.30;4.80;;;23.10;55.00;23.80;100894.00;;;;5024638;28;20175;-39
2022/08/21 04:56:34;;;;;;;6.77;4.93;;;23.00;54.90;23.80;100899.00;;;;5026931;28;20193;-39
2022/08/21 04:59:04;;;;;;;4.40;4.00;;;22.90;54.80;23.80;100907.00;;;;5025594;28;20203;-40
2022/08/21 05:01:33;;;;;;;4.30;3.90;;;22.90;55.00;23.70;100900.00;;;;5024306;28;20171;-39
2022/08/21 05:03:59;;;;;;;4.87;4.40;;;22.90;55.00;23.70;100903.00;;;;5024260;28;20213;-39
2022/08/21 05:06:26;;;;;;;5.83;4.80;;;22.90;54.90;23.70;100915.00;;;;5024354;28;20175;-39
2022/08/21 05:08:53;;;;;;;5.03;4.53;;;22.90;55.00;23.70;100921.00;;;;5023878;28;20207;-38
2022/08/21 05:11:19;;;;;;;4.80;4.30;;;22.90;55.00;23.70;100919.00;;;;5024438;28;20206;-39
2022/08/21 05:13:46;;;;;;;6.10;4.00;;;22.90;54.90;23.60;100919.00;;;;5024122;28;20221;-38
2022/08/21 05:16:11;;;;;;;4.67;4.17;;;22.90;54.90;23.60;100921.00;;;;5025404;28;20642;-39
2022/08/21 05:18:37;;;;;;;4.80;4.40;;;22.90;55.00;23.60;100915.00;;;;5025233;28;20290;-38
2022/08/21 05:21:04;;;;;;;4.90;4.40;;;22.90;55.00;23.60;100916.00;;;;5008037;28;20688;-38
2022/08/21 05:23:29;;;;;;;4.67;4.27;;;22.90;55.10;23.60;100916.00;;;;5024996;28;20203;-39
2022/08/21 05:25:55;;;;;;;5.03;4.50;;;22.90;55.10;23.60;100917.00;;;;5023678;28;20766;-38
2022/08/21 05:28:21;;;;;;;5.27;4.30;;;22.90;55.20;23.60;100914.00;;;;5025163;28;20194;-38
2022/08/21 05:30:47;;;;;;;5.03;4.53;;;22.90;55.30;23.60;100912.00;;;;5025181;28;20175;-38
2022/08/21 05:33:12;;;;;;;4.50;4.10;;;22.90;55.20;23.50;100919.00;;;;5028676;28;20179;-39
2022/08/21 05:35:38;;;;;;;4.70;4.30;;;22.90;55.20;23.50;100919.00;;;;5027459;28;20175;-39
2022/08/21 05:38:05;;;;;;;4.80;4.30;;;22.80;55.10;23.50;100923.00;;;;5028645;28;20658;-39
2022/08/21 05:40:31;;;;;;;5.37;4.10;;;22.80;55.20;23.50;100920.00;;;;5028695;28;20887;-40
2022/08/21 05:42:58;;;;;;;4.77;4.37;;;22.80;55.20;23.50;100920.00;;;;5010074;28;20202;-39
2022/08/21 05:45:28;;;;;;;4.50;4.10;;;22.80;55.30;23.50;100910.00;;;;5027680;28;20558;-40
2022/08/21 05:47:54;;;;;;;4.63;4.13;;;22.80;55.40;23.40;100911.00;;;;5009077;28;20222;-38
2022/08/21 05:50:20;;;;;;;6.73;4.93;;;22.70;55.40;23.40;100914.00;;;;5027459;28;20198;-38
2022/08/21 05:52:45;;;;;;;5.63;4.93;;;22.70;55.80;23.40;100919.00;;;;5027387;28;20179;-40
2022/08/21 05:55:11;;;;;;;5.27;4.77;;;22.70;56.10;23.40;100917.00;;;;5028347;28;20882;-39
2022/08/21 05:57:40;;;;;;;6.47;5.23;;;22.70;56.20;23.40;100909.00;;;;5043499;28;20198;-39
2022/08/21 06:00:10;;;;;;;5.90;5.40;;;22.70;56.50;23.40;100912.00;;;;5028273;28;20159;-40
2022/08/21 06:02:35;;;;;;;7.40;5.57;;;22.60;56.80;23.40;100914.00;;;;5027309;28;20258;-39
2022/08/21 06:05:01;;;;;;;6.90;5.00;;;22.60;56.30;23.40;100918.00;;;;5028084;28;20171;-39
2022/08/21 06:07:27;;;;;;;6.00;5.40;;;22.60;56.40;23.40;100925.00;;;;5028086;28;20194;-38
2022/08/21 06:09:53;;;;;;;6.73;5.37;;;22.60;56.50;23.40;100914.00;;;;5027717;28;20786;-38
2022/08/21 06:12:18;;;;;;;5.30;4.50;;;22.50;56.40;23.40;100923.00;;;;5027880;28;20667;-39
2022/08/21 06:14:44;;;;;;;4.77;4.30;;;22.60;56.70;23.40;100913.00;;;;5027029;28;20867;-38
2022/08/21 06:17:11;;;;;;;6.33;4.80;;;22.60;56.40;23.30;100915.00;;;;5026868;28;20634;-38
2022/08/21 06:19:40;;;;;;;5.90;4.97;;;22.60;56.70;23.40;100911.00;;;;4962138;28;20179;-38
2022/08/21 06:22:06;;;;;;;7.23;5.60;;;22.60;56.90;23.30;100913.00;;;;5021372;28;20189;-38
2022/08/21 06:24:32;;;;;;;6.20;5.17;;;22.60;57.30;23.30;100907.00;;;;5008584;28;20194;-38
2022/08/21 06:26:57;;;;;;;5.83;4.83;;;22.50;57.20;23.30;100912.00;;;;5022824;28;20186;-40
2022/08/21 06:29:24;;;;;;;6.07;4.70;;;22.50;57.30;23.30;100906.00;;;;5028973;28;20595;-39
2022/08/21 06:31:51;;;;;;;6.10;4.90;;;22.50;57.20;23.30;100910.00;;;;5023935;28;20265;-39
2022/08/21 06:34:17;;;;;;;5.13;4.63;;;22.50;56.90;23.30;100917.00;;;;5027521;28;20277;-39
2022/08/21 06:36:43;;;;;;;5.43;4.63;;;22.60;56.90;23.30;100904.00;;;;5028032;28;20348;-39
2022/08/21 06:39:09;;;;;;;4.90;4.30;;;22.50;57.50;23.30;100902.00;;;;5027474;28;20298;-39
2022/08/21 06:41:35;;;;;;;5.73;4.73;;;22.60;56.90;23.30;100905.00;;;;5027562;28;20314;-38
2022/08/21 06:44:00;;;;;;;5.07;4.20;;;22.50;57.00;23.30;100914.00;;;;5027565;28;20285;-40
2022/08/21 06:46:30;;;;;;;7.37;5.37;;;22.50;57.30;23.20;100904.00;;;;5027195;28;20190;-39
2022/08/21 06:48:56;;;;;;;6.97;5.50;;;22.50;57.70;23.20;100920.00;;;;5027029;28;20342;-39
2022/08/21 06:51:22;;;;;;;6.93;5.00;;;22.50;57.90;23.20;100909.00;;;;5027193;28;20262;-39
2022/08/21 06:53:48;;;;;;;4.90;4.13;;;22.50;57.50;23.20;100923.00;;;;5027358;28;20178;-40
2022/08/21 06:56:14;;;;;;;6.37;4.93;;;22.50;57.40;23.20;100921.00;;;;5027101;28;20171;-39
2022/08/21 06:58:39;;;;;;;8.50;6.00;;;22.50;58.00;23.20;100913.00;;;;5026921;28;20767;-39
2022/08/21 07:01:05;;;;;;;6.37;5.73;;;22.40;58.20;23.20;100925.00;;;;5027067;28;20175;-39
2022/08/21 07:03:39;;;;;;;6.13;5.40;;;22.40;58.20;23.10;100915.00;;;;5025600;28;20213;-37
2022/08/21 07:06:07;;;;;;;6.30;4.90;;;22.40;58.00;23.10;100916.00;;;;5025868;28;20197;-38
2022/08/21 07:08:33;;;;;;;5.87;4.37;;;22.40;57.60;23.10;100907.00;;;;5026147;28;20359;-39
2022/08/21 07:11:01;;;;;;;5.43;4.10;;;22.50;57.60;23.00;100916.00;;;;5015321;28;20708;-40
2022/08/21 07:13:28;;;;;;;5.23;4.20;;;22.40;57.50;23.00;100917.00;;;;5007280;28;20184;-39
2022/08/21 07:15:53;;;;;;;5.97;4.63;;;22.50;57.60;23.00;100915.00;;;;5020977;28;20178;-39
2022/08/21 07:18:19;;;;;;;6.00;4.67;;;22.50;57.50;23.00;100919.00;;;;5025893;28;20202;-39
2022/08/21 07:20:45;;;;;;;6.37;5.37;;;22.50;57.60;23.00;100923.00;;;;4961730;28;20253;-39
2022/08/21 07:23:20;;;;;;;5.77;4.60;;;22.50;57.80;23.00;100907.00;;;;5022157;28;20210;-39
2022/08/21 07:25:46;;;;;;;5.77;4.60;;;22.50;57.60;23.00;100914.00;;;;4989565;28;20160;-38
2022/08/21 07:28:12;;;;;;;5.53;4.30;;;22.50;57.60;23.00;100919.00;;;;5006796;28;20192;-39
2022/08/21 07:30:38;;;;;;;6.33;5.13;;;22.50;57.50;23.00;100920.00;;;;5006817;28;20233;-38
2022/08/21 07:33:03;;;;;;;8.50;5.70;;;22.40;57.80;23.00;100921.00;;;;5006962;28;20180;-39
2022/08/21 07:35:31;;;;;;;6.63;5.00;;;22.40;58.00;23.00;100922.00;;;;5024120;28;20249;-38
2022/08/21 07:37:56;;;;;;;5.13;4.30;;;22.40;57.90;23.00;100918.00;;;;5026588;28;20578;-40
2022/08/21 07:40:22;;;;;;;5.47;4.47;;;22.40;57.90;23.00;100928.00;;;;5026607;28;20178;-39
2022/08/21 07:42:51;;;;;;;4.93;4.30;;;22.40;57.90;23.00;100914.00;;;;5026415;28;20258;-39
2022/08/21 07:45:19;;;;;;;5.27;4.20;;;22.40;57.90;23.00;100912.00;;;;5026310;28;20183;-39
2022/08/21 07:47:44;;;;;;;6.77;4.70;;;22.30;57.90;23.00;100913.00;;;;5026441;28;20194;-39
2022/08/21 07:50:11;;;;;;;4.80;4.20;;;22.30;58.30;22.90;100907.00;;;;5026566;28;20175;-40
2022/08/21 07:52:37;;;;;;;5.73;4.20;;;22.20;58.10;22.90;100839.00;;;;5026599;28;20163;-39
2022/08/21 07:55:03;;;;;;;7.23;4.50;;;22.30;58.20;23.00;100918.00;;;;5026951;28;20178;-39
2022/08/21 07:57:29;;;;;;;6.97;4.90;;;22.30;58.30;23.00;100915.00;;;;5027961;28;20714;-48
2022/08/21 07:59:55;;;;;;;5.33;4.60;;;22.20;58.20;23.00;100914.00;;;;5029526;28;20179;-39
2022/08/21 08:02:25;;;;;;;4.67;4.00;;;22.30;58.60;22.90;100917.00;;;;5026631;28;20171;-39
2022/08/21 08:04:51;;;;;;;8.37;4.80;;;22.20;58.50;23.00;100916.00;;;;5026266;28;20194;-39
2022/08/21 08:07:17;;;;;;;5.60;4.30;;;22.30;58.30;22.90;100909.00;;;;5026018;28;20182;-39
2022/08/21 08:09:43;;;;;;;4.20;3.80;;;22.30;58.40;22.90;100910.00;;;;5026205;28;20187;-39
2022/08/21 08:12:09;;;;;;;5.43;4.37;;;22.30;58.50;22.90;100913.00;;;;5026072;28;20175;-39
2022/08/21 08:14:35;;;;;;;6.80;4.23;;;22.30;58.60;22.90;100917.00;;;;5022173;28;20183;-39
2022/08/21 08:17:02;;;;;;;6.13;4.77;;;22.30;58.60;23.00;100912.00;;;;5005788;28;20168;-40
2022/08/21 08:19:28;;;;;;;6.27;4.60;;;22.30;58.50;23.00;100914.00;;;;4992193;28;20214;-38
2022/08/21 08:21:54;;;;;;;6.33;4.30;;;22.30;58.50;22.90;100908.00;;;;4972266;28;20270;-38
2022/08/21 08:24:19;;;;;;;6.97;4.60;;;22.20;58.90;22.90;100910.00;;;;5029190;28;20282;-39
2022/08/21 08:26:46;;;;;;;6.63;4.10;;;22.30;58.70;22.90;100906.00;;;;5025580;28;20174;-37
2022/08/21 08:29:11;;;;;;;6.87;4.97;;;22.30;58.60;23.00;100907.00;;;;5025578;28;20270;-40
2022/08/21 08:31:38;;;;;;;7.70;4.60;;;22.30;58.80;23.00;100911.00;;;;5025966;28;20257;-40
2022/08/21 08:34:03;;;;;;;6.73;4.07;;;22.30;58.60;23.00;100907.00;;;;5026374;28;20189;-40
2022/08/21 08:36:37;;;;;;;7.30;4.20;;;22.30;58.40;22.90;100914.00;;;;5025814;28;20554;-39
2022/08/21 08:39:03;;;;;;;5.60;3.47;;;22.30;58.30;22.90;100886.00;;;;5026622;28;20191;-40
2022/08/21 08:41:30;;;;;;;4.37;3.50;;;22.20;58.30;22.90;100896.00;;;;5024980;28;20232;-40
2022/08/21 08:44:00;;;;;;;4.97;4.10;;;22.30;58.60;22.90;100895.00;;;;5040597;28;20198;-40
2022/08/21 08:46:39;;;;;;;4.10;3.07;;;22.20;58.60;22.90;100905.00;;;;5040356;28;20658;-38
2022/08/21 08:49:15;;;;;;;5.57;3.30;;;22.20;58.50;22.90;100896.00;;;;5040843;28;20212;-39
2022/08/21 08:51:47;;;;;;;5.27;3.40;;;22.20;58.30;22.80;100900.00;;;;5040575;28;20167;-39
2022/08/21 08:54:21;;;;;;;7.13;3.17;;;22.20;58.20;22.90;100879.00;;;;5024299;28;20646;-39
2022/08/21 08:56:47;;;;;;;7.60;3.10;;;22.20;59.20;22.80;100894.00;;;;5024166;28;20162;-39
2022/08/21 08:59:26;;;;;;;6.87;3.40;;;22.20;58.90;22.90;100890.00;;;;5024098;28;20187;-39
2022/08/21 09:01:52;;;;;;;4.60;3.10;;;22.20;58.60;22.90;100898.00;;;;5024089;28;20185;-39
2022/08/21 09:04:24;;;;;;;7.13;3.37;;;22.20;58.50;22.80;100884.00;;;;5025072;28;20194;-40
2022/08/21 09:06:58;;;;;;;4.67;3.20;;;22.10;58.50;22.80;100892.00;;;;5027623;28;20193;-44
2022/08/21 09:10:02;;;;;;;3.97;2.63;;;22.10;59.10;22.80;100880.00;;;;5028813;28;20853;-43
2022/08/21 09:13:12;;;;;;;5.20;2.90;;;22.30;58.60;22.90;100887.00;;;;5028141;28;20194;-44
2022/08/21 09:16:02;;;;;;;5.87;2.70;;;22.40;59.70;22.90;100877.00;;;;5015650;28;20183;-43
2022/08/21 09:19:16;;;;;;;8.77;3.07;;;22.40;59.70;23.00;100878.00;;;;5009891;28;20192;-43
2022/08/21 09:21:59;;;;;;;6.60;3.03;;;22.50;59.90;23.00;100871.00;;;;4951595;28;20254;-44
2022/08/21 09:24:41;;;;;;;7.90;3.10;;;22.60;60.30;23.10;100880.00;;;;5024361;28;20203;-43
2022/08/21 09:27:12;;;;;;;9.23;3.23;;;22.50;60.50;23.10;100869.00;;;;5024512;28;20761;-43
2022/08/21 09:29:50;;;;;;;6.07;3.00;;;22.60;60.40;23.10;100869.00;;;;5009743;28;20156;-43
2022/08/21 09:32:29;;;;;;;7.17;2.97;;;22.60;60.70;23.10;100856.00;;;;5024578;28;20174;-43
2022/08/21 09:34:59;;;;;;;6.70;3.00;;;22.60;60.60;23.10;100857.00;;;;5009525;28;20604;-43
2022/08/21 09:37:29;;;;;;;6.63;2.90;;;22.70;61.00;23.20;100860.00;;;;5008848;28;20195;-43
2022/08/21 09:39:57;;;;;;;5.90;2.80;;;22.70;61.10;23.20;100865.00;;;;5024364;28;20172;-42
2022/08/21 09:42:34;;;;;;;7.23;3.00;;;22.70;61.00;23.20;100865.00;;;;5009418;28;20172;-43
2022/08/21 09:45:14;;;;;;;6.57;2.90;;;22.70;61.30;23.20;100853.00;;;;5009170;28;20207;-44
2022/08/21 09:47:41;;;;;;;4.17;2.60;;;22.70;61.40;23.20;100865.00;;;;5009148;28;20183;-44
2022/08/21 09:50:28;;;;;;;4.10;2.87;;;22.70;61.40;23.30;100858.00;;;;5009416;28;20175;-43
2022/08/21 09:52:59;;;;;;;5.03;2.70;;;22.70;61.40;23.30;100845.00;;;;5021924;28;20179;-42
2022/08/21 09:58:32;;;;;;;4.43;2.20;;;22.80;62.00;23.30;100854.00;;;;5021479;28;20638;-44
2022/08/21 10:01:00;;;;;;;3.90;2.33;;;22.80;62.10;23.30;100862.00;;;;5008867;28;20238;-44
2022/08/21 10:03:26;;;;;;;4.57;2.40;;;22.80;62.10;23.40;100850.00;;;;5008806;28;20214;-43
2022/08/21 10:06:05;;;;;;;3.77;2.50;;;22.90;62.50;23.40;100846.00;;;;5008509;28;20175;-43
2022/08/21 10:08:31;;;;;;;3.40;2.47;;;22.80;62.40;23.40;100855.00;;;;5008729;28;20286;-48
2022/08/21 10:11:09;;;;;;;4.83;2.40;;;22.90;62.60;23.40;100843.00;;;;5008632;28;20178;-42
2022/08/21 10:14:08;;;;;;;3.77;2.50;;;22.90;62.60;23.40;100833.00;;;;5008787;28;20595;-44
2022/08/21 10:17:31;;;;;;;3.53;2.37;;;22.90;62.70;23.40;100838.00;;;;5022249;28;20318;-43
2022/08/21 10:20:23;;;;;;;5.13;2.50;;;22.90;62.60;23.50;100829.00;;;;5002144;28;20271;-43
2022/08/21 10:23:02;;;;;;;4.43;2.27;;;23.00;62.90;23.50;100822.00;;;;5011899;28;20160;-44
2022/08/21 10:25:55;;;;;;;2.63;2.20;;;23.00;62.90;23.50;100830.00;;;;5024083;28;20183;-41
2022/08/21 10:29:06;;;;;;;3.43;2.30;;;23.00;62.90;23.50;100829.00;;;;5021475;28;20187;-45
2022/08/21 10:31:43;;;;;;;2.33;2.10;;;23.00;62.80;23.50;100823.00;;;;5008845;28;20167;-43
2022/08/21 10:34:42;;;;;;;2.80;2.20;;;23.10;63.10;23.60;100807.00;;;;5008265;28;20163;-43
2022/08/21 10:37:17;;;;;;;3.47;2.30;;;23.10;63.00;23.60;100800.00;;;;5020105;28;20635;-43
2022/08/21 10:39:56;;;;;;;3.33;2.00;;;23.10;63.00;23.60;100815.00;;;;5023533;28;20286;-44
2022/08/21 10:42:49;;;;;;;3.53;2.40;;;23.10;63.00;23.60;100805.00;;;;5023559;28;20569;-43
2022/08/21 10:45:42;;;;;;;3.23;2.20;;;23.10;63.00;23.60;100810.00;;;;5021841;28;20195;-44
2022/08/21 10:48:11;;;;;;;4.27;2.40;;;23.10;63.10;23.70;100803.00;;;;5023515;28;20231;-44
2022/08/21 10:50:53;;;;;;;3.20;2.30;;;23.20;63.20;23.70;100813.00;;;;5022858;28;20179;-46
2022/08/21 10:53:55;;;;;;;3.40;2.10;;;23.20;63.10;23.70;100814.00;;;;5022748;28;20239;-43
2022/08/21 10:56:28;;;;;;;3.57;2.17;;;23.20;63.10;23.70;100810.00;;;;5000283;28;20188;-43
2022/08/21 10:59:15;;;;;;;3.30;2.30;;;23.20;63.10;23.70;100812.00;;;;5007291;28;20221;-43
2022/08/21 11:01:54;;;;;;;2.87;2.10;;;23.20;63.10;23.80;100811.00;;;;5007398;28;20164;-44